createdAt,value
2022-09-24T00:01:58.035Z,13.10
2022-09-24T00:04:31.911Z,13.57
2022-09-24T00:07:02.948Z,12.55
2022-09-24T00:09:34.214Z,13.70
2022-09-24T00:12:13.628Z,16.77
2022-09-24T00:14:47.709Z,12.65
2022-09-24T00:17:19.571Z,13.00
2022-09-24T00:19:50.796Z,14.27
2022-09-24T00:22:22.204Z,10.93
2022-09-24T00:25:05.634Z,16.95
2022-09-24T00:27:39.883Z,16.00
2022-09-24T00:30:12.257Z,13.77
2022-09-24T00:32:43.796Z,13.43
2022-09-24T00:35:15.204Z,13.07
2022-09-24T00:37:46.007Z,13.32
2022-09-24T00:40:17.078Z,12.68
2022-09-24T00:42:50.644Z,13.93
2022-09-24T00:45:21.814Z,12.32
2022-09-24T00:47:53.892Z,12.68
2022-09-24T00:50:28.943Z,14.75
2022-09-24T00:53:02.410Z,16.63
2022-09-24T00:55:34.482Z,11.43
2022-09-24T00:58:11.922Z,14.02
2022-09-24T01:00:44.917Z,15.65
2022-09-24T01:03:19.599Z,15.93
2022-09-24T01:05:51.042Z,12.15
2022-09-24T01:08:23.890Z,15.05
2022-09-24T01:11:08.959Z,10.52
2022-09-24T01:14:14.640Z,13.27
2022-09-24T01:16:53.629Z,13.63
2022-09-24T01:20:11.368Z,9.88
2022-09-24T01:22:52.728Z,10.27
2022-09-24T01:25:34.577Z,5.43
2022-09-24T01:28:21.236Z,7.90
2022-09-24T01:31:01.197Z,6.30
2022-09-24T01:33:35.806Z,5.47
2022-09-24T01:36:09.756Z,7.53
2022-09-24T01:38:45.183Z,8.45
2022-09-24T01:41:18.096Z,11.55
2022-09-24T01:43:49.193Z,8.82
2022-09-24T01:46:24.338Z,8.45
2022-09-24T01:48:55.648Z,8.18
2022-09-24T01:51:29.921Z,10.30
2022-09-24T01:54:05.581Z,7.70
2022-09-24T01:56:41.903Z,8.02
2022-09-24T01:59:17.144Z,6.88
2022-09-24T02:02:01.089Z,8.18
2022-09-24T02:04:33.633Z,6.57
2022-09-24T02:07:08.564Z,5.65
2022-09-24T02:09:41.150Z,7.13
2022-09-24T02:12:15.510Z,7.60
2022-09-24T02:14:49.518Z,5.38
2022-09-24T02:17:24.139Z,7.75
2022-09-24T02:19:58.243Z,5.90
2022-09-24T02:22:29.792Z,6.15
2022-09-24T02:25:03.765Z,8.10
2022-09-24T02:27:35.632Z,7.07
2022-09-24T02:30:10.205Z,3.42
2022-09-24T02:32:45.893Z,7.15
2022-09-24T02:35:14.233Z,6.07
2022-09-24T02:37:48.518Z,6.85
2022-09-24T02:40:20.089Z,5.20
2022-09-24T02:42:51.257Z,6.82
2022-09-24T02:45:22.107Z,6.75
2022-09-24T02:47:56.126Z,4.10
2022-09-24T02:50:26.962Z,5.35
2022-09-24T02:52:58.760Z,8.07
2022-09-24T02:55:29.806Z,7.65
2022-09-24T02:58:01.193Z,5.45
2022-09-24T03:00:32.023Z,4.13
2022-09-24T03:03:05.569Z,11.48
2022-09-24T03:05:36.508Z,7.40
2022-09-24T03:08:08.100Z,7.13
2022-09-24T03:10:39.696Z,7.68
2022-09-24T03:13:12.575Z,7.45
2022-09-24T03:15:46.188Z,7.45
2022-09-24T03:18:19.690Z,6.88
2022-09-24T03:20:59.164Z,8.20
2022-09-24T03:23:30.391Z,7.75
2022-09-24T03:26:01.748Z,8.52
2022-09-24T03:28:33.002Z,6.28
2022-09-24T03:31:02.524Z,8.02
2022-09-24T03:33:38.658Z,3.60
2022-09-24T03:36:12.207Z,5.73
2022-09-24T03:38:44.350Z,8.68
2022-09-24T03:41:15.862Z,7.30
2022-09-24T03:43:47.089Z,7.85
2022-09-24T03:46:20.448Z,5.90
2022-09-24T03:48:53.923Z,5.78
2022-09-24T03:51:25.149Z,3.85
2022-09-24T03:53:56.442Z,8.23
2022-09-24T03:56:27.411Z,8.10
2022-09-24T03:58:58.500Z,7.20
2022-09-24T04:01:31.468Z,8.55
2022-09-24T04:04:05.854Z,6.38
2022-09-24T04:06:37.173Z,10.35
2022-09-24T04:09:09.073Z,7.32
2022-09-24T04:11:40.216Z,6.88
2022-09-24T04:14:11.903Z,8.30
2022-09-24T04:16:43.734Z,6.85
2022-09-24T04:19:19.185Z,5.95
2022-09-24T04:21:50.661Z,5.65
2022-09-24T04:24:21.998Z,7.22
2022-09-24T04:26:53.570Z,6.82
2022-09-24T04:29:24.880Z,5.03
2022-09-24T04:31:56.704Z,7.65
2022-09-24T04:34:31.825Z,6.10
2022-09-24T04:37:03.597Z,6.22
2022-09-24T04:39:34.786Z,6.57
2022-09-24T04:42:05.921Z,7.60
2022-09-24T04:44:37.257Z,8.82
2022-09-24T04:47:09.075Z,7.28
2022-09-24T04:49:46.260Z,9.60
2022-09-24T04:52:18.234Z,6.57
2022-09-24T04:54:49.898Z,9.18
2022-09-24T04:57:21.075Z,3.05
2022-09-24T04:59:52.754Z,7.20
2022-09-24T05:02:25.476Z,7.28
2022-09-24T05:04:59.161Z,8.27
2022-09-24T05:07:31.056Z,8.90
2022-09-24T05:10:04.935Z,7.82
2022-09-24T05:12:37.323Z,7.10
2022-09-24T05:15:10.439Z,6.97
2022-09-24T05:17:43.439Z,7.15
2022-09-24T05:20:18.794Z,7.70
2022-09-24T05:22:51.686Z,8.32
2022-09-24T05:25:25.028Z,5.10
2022-09-24T05:27:55.632Z,9.32
2022-09-24T05:30:29.444Z,6.70
2022-09-24T05:33:00.333Z,10.27
2022-09-24T05:35:35.317Z,2.75
2022-09-24T05:38:06.340Z,4.35
2022-09-24T05:40:52.817Z,7.10
2022-09-24T05:43:28.005Z,6.70
2022-09-24T05:46:00.698Z,6.50
2022-09-24T05:48:31.473Z,6.72
2022-09-24T05:51:07.966Z,3.25
2022-09-24T05:53:39.471Z,4.75
2022-09-24T05:56:11.321Z,4.03
2022-09-24T05:58:42.803Z,3.25
2022-09-24T06:01:14.427Z,3.42
2022-09-24T06:03:46.539Z,3.20
2022-09-24T06:06:21.078Z,4.13
2022-09-24T06:08:52.285Z,3.08
2022-09-24T06:11:24.849Z,3.80
2022-09-24T06:13:56.755Z,3.92
2022-09-24T06:16:29.020Z,6.15
2022-09-24T06:19:00.445Z,5.03
2022-09-24T06:21:35.533Z,5.85
2022-09-24T06:24:08.065Z,3.30
2022-09-24T06:26:39.565Z,4.20
2022-09-24T06:29:11.452Z,5.85
2022-09-24T06:31:43.425Z,4.40
2022-09-24T06:34:15.613Z,4.30
2022-09-24T06:36:50.393Z,3.35
2022-09-24T06:39:22.800Z,4.60
2022-09-24T06:41:55.117Z,6.47
2022-09-24T06:44:27.825Z,4.63
2022-09-24T06:47:00.014Z,6.15
2022-09-24T06:49:34.338Z,6.95
2022-09-24T06:52:09.952Z,7.30
2022-09-24T06:54:41.776Z,6.85
2022-09-24T06:57:13.963Z,6.32
2022-09-24T06:59:45.287Z,7.05
2022-09-24T07:02:16.867Z,8.10
2022-09-24T07:04:48.629Z,4.35
2022-09-24T07:07:35.339Z,6.10
2022-09-24T07:10:10.457Z,3.93
2022-09-24T07:12:44.978Z,7.85
2022-09-24T07:15:16.723Z,5.80
2022-09-24T07:17:49.671Z,7.10
2022-09-24T07:20:21.156Z,6.65
2022-09-24T07:22:55.422Z,4.38
2022-09-24T07:25:27.437Z,4.28
2022-09-24T07:27:58.643Z,6.82
2022-09-24T07:30:29.982Z,6.75
2022-09-24T07:33:02.408Z,6.72
2022-09-24T07:35:34.891Z,4.72
2022-09-24T07:38:12.533Z,6.38
2022-09-24T07:40:45.177Z,5.97
2022-09-24T07:43:17.901Z,6.30
2022-09-24T07:45:49.697Z,5.38
2022-09-24T07:48:22.203Z,3.53
2022-09-24T07:50:53.807Z,5.35
2022-09-24T07:53:29.007Z,6.80
2022-09-24T07:56:03.821Z,7.00
2022-09-24T07:58:36.125Z,7.68
2022-09-24T08:01:08.731Z,8.13
2022-09-24T08:03:41.162Z,8.13
2022-09-24T08:06:13.993Z,11.38
2022-09-24T08:08:48.295Z,7.47
2022-09-24T08:11:20.399Z,6.45
2022-09-24T08:13:52.644Z,5.95
2022-09-24T08:16:25.004Z,4.88
2022-09-24T08:18:57.118Z,6.95
2022-09-24T08:21:30.507Z,6.00
2022-09-24T08:24:04.799Z,4.22
2022-09-24T08:26:37.193Z,6.00
2022-09-24T08:29:08.759Z,4.70
2022-09-24T08:31:42.465Z,5.05
2022-09-24T08:34:13.877Z,6.70
2022-09-24T08:36:46.087Z,6.75
2022-09-24T08:39:20.174Z,3.88
2022-09-24T08:42:00.643Z,5.47
2022-09-24T08:44:51.955Z,7.88
2022-09-24T08:47:35.851Z,3.63
2022-09-24T08:50:17.281Z,3.60
2022-09-24T08:53:03.372Z,4.82
2022-09-24T08:55:41.531Z,2.78
2022-09-24T08:58:33.455Z,4.45
2022-09-24T09:01:11.941Z,3.40
2022-09-24T09:03:50.832Z,5.57
2022-09-24T09:06:52.969Z,4.80
2022-09-24T09:09:28.631Z,3.40
2022-09-24T09:12:07.409Z,4.15
2022-09-24T09:14:45.349Z,2.90
2022-09-24T09:17:28.731Z,9.32
2022-09-24T09:20:02.239Z,4.40
2022-09-24T09:22:50.423Z,5.50
2022-09-24T09:25:25.124Z,3.55
2022-09-24T09:28:04.782Z,3.00
2022-09-24T09:30:44.228Z,4.60
2022-09-24T09:33:26.817Z,3.17
2022-09-24T09:36:08.566Z,3.72
2022-09-24T09:38:53.059Z,3.45
2022-09-24T09:41:33.658Z,3.38
2022-09-24T09:44:18.280Z,4.05
2022-09-24T09:46:54.932Z,3.60
2022-09-24T09:49:29.631Z,4.22
2022-09-24T09:52:05.618Z,7.25
2022-09-24T09:54:42.187Z,5.38
2022-09-24T09:57:21.998Z,5.28
2022-09-24T09:59:58.072Z,4.32
2022-09-24T10:02:33.757Z,6.63
2022-09-24T10:05:07.949Z,5.07
2022-09-24T10:07:48.533Z,5.28
2022-09-24T10:10:24.421Z,5.15
2022-09-24T10:12:57.700Z,2.60
2022-09-24T10:15:31.889Z,4.90
2022-09-24T10:18:04.782Z,3.05
2022-09-24T10:20:38.142Z,3.20
2022-09-24T10:23:19.387Z,4.57
2022-09-24T10:25:57.812Z,4.38
2022-09-24T10:28:42.347Z,6.45
2022-09-24T10:31:23.573Z,6.60
2022-09-24T10:33:58.899Z,3.00
2022-09-24T10:36:33.027Z,4.05
2022-09-24T10:39:14.994Z,5.50
2022-09-24T10:41:51.331Z,3.97
2022-09-24T10:44:25.125Z,5.13
2022-09-24T10:47:10.765Z,4.53
2022-09-24T10:49:57.561Z,5.20
2022-09-24T10:52:48.135Z,4.40
2022-09-24T10:55:29.061Z,3.70
2022-09-24T10:58:06.361Z,4.30
2022-09-24T11:00:44.113Z,4.35
2022-09-24T11:03:46.699Z,5.00
2022-09-24T11:06:24.703Z,6.82
2022-09-24T11:09:10.079Z,4.45
2022-09-24T11:11:55.645Z,2.20
2022-09-24T11:14:40.075Z,4.45
2022-09-24T11:17:40.586Z,2.65
2022-09-24T11:20:33.991Z,3.78
2022-09-24T11:23:25.327Z,3.58
2022-09-24T11:26:07.267Z,3.80
2022-09-24T11:29:01.700Z,2.95
2022-09-24T11:31:41.501Z,4.82
2022-09-24T11:34:38.288Z,3.97
2022-09-24T11:37:25.424Z,5.93
2022-09-24T11:40:12.162Z,3.97
2022-09-24T11:42:57.423Z,3.80
2022-09-24T11:45:44.773Z,4.95
2022-09-24T11:51:23.875Z,2.50
2022-09-24T11:54:01.843Z,4.82
2022-09-24T11:56:38.234Z,2.92
2022-09-24T11:59:17.467Z,3.60
2022-09-24T12:01:54.133Z,6.60
2022-09-24T12:04:29.967Z,3.25
2022-09-24T12:07:12.708Z,1.90
2022-09-24T12:09:54.832Z,3.88
2022-09-24T12:12:31.202Z,2.78
2022-09-24T12:15:08.914Z,1.95
2022-09-24T12:17:47.947Z,3.03
2022-09-24T12:20:24.907Z,2.35
2022-09-24T12:23:01.259Z,3.40
2022-09-24T12:25:49.779Z,2.95
2022-09-24T12:28:45.732Z,2.00
2022-09-24T12:31:36.568Z,3.25
2022-09-24T12:34:15.258Z,3.45
2022-09-24T12:36:58.239Z,1.65
2022-09-24T12:39:35.515Z,6.00
2022-09-24T12:42:12.231Z,2.60
2022-09-24T12:44:48.865Z,4.20
2022-09-24T12:47:25.268Z,3.45
2022-09-24T12:50:00.238Z,1.35
2022-09-24T12:52:38.055Z,2.60
2022-09-24T12:55:22.312Z,4.50
2022-09-24T12:57:59.759Z,3.45
2022-09-24T13:00:41.462Z,3.65
2022-09-24T13:03:35.671Z,2.53
2022-09-24T13:06:08.768Z,3.95
2022-09-24T13:08:40.498Z,1.95
2022-09-24T13:11:29.688Z,2.92
2022-09-24T13:14:19.832Z,2.78
2022-09-24T13:16:53.716Z,3.75
2022-09-24T13:19:37.771Z,2.08
2022-09-24T13:22:09.310Z,2.78
2022-09-24T13:24:50.917Z,2.05
2022-09-24T13:27:26.983Z,3.85
2022-09-24T13:30:17.741Z,4.03
2022-09-24T13:32:59.180Z,3.05
2022-09-24T13:35:33.509Z,3.17
2022-09-24T13:38:10.112Z,3.92
2022-09-24T13:40:46.683Z,2.45
2022-09-24T13:43:23.327Z,6.00
2022-09-24T13:45:57.773Z,3.00
2022-09-24T13:48:38.297Z,2.08
2022-09-24T13:51:15.371Z,2.53
2022-09-24T13:53:51.960Z,3.88
2022-09-24T13:56:24.598Z,3.42
2022-09-24T13:59:06.442Z,3.25
2022-09-24T14:01:44.969Z,2.72
2022-09-24T14:04:21.471Z,3.83
2022-09-24T14:06:54.803Z,2.40
2022-09-24T14:09:31.335Z,3.35
2022-09-24T14:12:04.691Z,2.28
2022-09-24T14:14:39.739Z,2.58
2022-09-24T14:17:17.522Z,1.48
2022-09-24T14:19:48.976Z,1.85
2022-09-24T14:22:24.828Z,3.38
2022-09-24T14:25:00.684Z,4.17
2022-09-24T14:27:34.213Z,1.45
2022-09-24T14:30:08.892Z,4.15
2022-09-24T14:32:45.534Z,2.92
2022-09-24T14:35:35.041Z,1.40
2022-09-24T14:38:09.753Z,3.38
2022-09-24T14:40:47.597Z,1.77
2022-09-24T14:43:22.008Z,3.03
2022-09-24T14:45:55.012Z,3.85
2022-09-24T14:48:33.415Z,2.85
2022-09-24T14:51:05.584Z,4.00
2022-09-24T14:53:38.237Z,2.60
2022-09-24T14:56:23.579Z,3.38
2022-09-24T14:58:54.554Z,2.63
2022-09-24T15:01:32.756Z,2.65
2022-09-24T15:04:10.991Z,3.55
2022-09-24T15:06:42.199Z,3.15
2022-09-24T15:09:26.961Z,4.35
2022-09-24T15:11:59.363Z,3.47
2022-09-24T15:14:37.110Z,3.03
2022-09-24T15:17:27.146Z,3.00
2022-09-24T15:20:00.928Z,3.67
2022-09-24T15:22:35.370Z,3.13
2022-09-24T15:25:07.517Z,3.10
2022-09-24T15:27:43.050Z,2.58
2022-09-24T15:30:22.307Z,3.92
2022-09-24T15:32:54.087Z,5.07
2022-09-24T15:35:29.110Z,2.28
2022-09-24T15:38:02.067Z,3.30
2022-09-24T15:40:35.841Z,2.60
2022-09-24T15:43:07.034Z,1.95
2022-09-24T15:45:41.411Z,3.35
2022-09-24T15:48:16.489Z,2.53
2022-09-24T15:50:52.591Z,2.25
2022-09-24T15:53:27.059Z,3.87
2022-09-24T15:55:59.743Z,4.32
2022-09-24T15:58:31.845Z,2.17
2022-09-24T16:01:03.235Z,3.72
2022-09-24T16:03:35.689Z,4.15
2022-09-24T16:06:10.051Z,1.83
2022-09-24T16:08:41.219Z,4.45
2022-09-24T16:11:13.026Z,4.40
2022-09-24T16:13:44.151Z,3.10
2022-09-24T16:16:15.299Z,3.08
2022-09-24T16:18:46.387Z,4.10
2022-09-24T16:21:20.823Z,3.38
2022-09-24T16:23:58.192Z,2.03
2022-09-24T16:26:29.265Z,3.17
2022-09-24T16:29:00.675Z,2.63
2022-09-24T16:31:32.931Z,2.55
2022-09-24T16:34:05.036Z,2.33
2022-09-24T16:36:39.753Z,3.28
2022-09-24T16:39:11.967Z,3.40
2022-09-24T16:41:43.229Z,3.30
2022-09-24T16:44:15.610Z,3.97
2022-09-24T16:46:47.764Z,3.38
2022-09-24T16:49:19.905Z,5.05
2022-09-24T16:51:54.157Z,4.03
2022-09-24T16:54:26.734Z,3.42
2022-09-24T16:56:58.851Z,2.13
2022-09-24T16:59:30.437Z,2.53
2022-09-24T17:02:02.205Z,2.72
2022-09-24T17:04:34.263Z,6.53
2022-09-24T17:07:09.220Z,4.22
2022-09-24T17:09:52.818Z,3.20
2022-09-24T17:12:24.634Z,2.78
2022-09-24T17:14:58.248Z,3.17
2022-09-24T17:17:30.775Z,2.00
2022-09-24T17:20:01.943Z,3.17
2022-09-24T17:22:35.976Z,2.28
2022-09-24T17:25:08.732Z,3.92
2022-09-24T17:27:40.403Z,2.50
2022-09-24T17:30:13.184Z,1.65
2022-09-24T17:32:44.977Z,5.88
2022-09-24T17:35:16.542Z,1.95
2022-09-24T17:37:50.247Z,2.10
2022-09-24T17:40:24.381Z,7.32
2022-09-24T17:42:57.125Z,9.48
2022-09-24T17:45:29.744Z,2.92
2022-09-24T17:48:02.627Z,4.57
2022-09-24T17:50:34.270Z,7.60
2022-09-24T17:53:12.358Z,2.13
2022-09-24T17:55:52.110Z,5.20
2022-09-24T17:58:23.551Z,6.70
2022-09-24T18:00:56.191Z,4.45
2022-09-24T18:03:27.575Z,2.63
2022-09-24T18:06:03.554Z,2.25
2022-09-24T18:08:40.271Z,4.73
2022-09-24T18:11:13.813Z,4.95
2022-09-24T18:13:45.879Z,2.47
2022-09-24T18:16:19.161Z,3.40
2022-09-24T18:18:52.689Z,3.20
2022-09-24T18:21:25.809Z,3.10
2022-09-24T18:24:01.483Z,3.22
2022-09-24T18:26:35.972Z,3.15
2022-09-24T18:29:10.560Z,3.40
2022-09-24T18:31:42.787Z,2.30
2022-09-24T18:34:17.408Z,2.38
2022-09-24T18:36:49.561Z,2.35
2022-09-24T18:39:25.525Z,3.42
2022-09-24T18:41:56.990Z,2.90
2022-09-24T18:44:29.123Z,2.47
2022-09-24T18:47:02.763Z,3.20
2022-09-24T18:49:36.207Z,2.83
2022-09-24T18:52:07.647Z,2.78
2022-09-24T18:54:41.879Z,2.38
2022-09-24T18:57:13.369Z,1.95
2022-09-24T18:59:49.032Z,2.20
2022-09-24T19:02:22.070Z,3.05
2022-09-24T19:04:53.973Z,3.13
2022-09-24T19:07:24.923Z,4.68
2022-09-24T19:09:59.755Z,1.52
2022-09-24T19:12:32.015Z,1.85
2022-09-24T19:15:03.234Z,2.55
2022-09-24T19:17:36.077Z,4.03
2022-09-24T19:20:09.143Z,2.03
2022-09-24T19:22:40.561Z,4.20
2022-09-24T19:25:15.005Z,1.70
2022-09-24T19:27:46.638Z,4.45
2022-09-24T19:30:18.311Z,2.50
2022-09-24T19:32:49.570Z,2.63
2022-09-24T19:35:20.950Z,3.33
2022-09-24T19:37:53.610Z,3.60
2022-09-24T19:40:29.297Z,3.30
2022-09-24T19:43:03.264Z,2.30
2022-09-24T19:45:36.482Z,2.10
2022-09-24T19:48:08.096Z,2.40
2022-09-24T19:50:41.501Z,1.98
2022-09-24T19:53:13.460Z,2.40
2022-09-24T19:55:48.034Z,2.40
2022-09-24T19:58:19.986Z,3.90
2022-09-24T20:00:51.817Z,2.80
2022-09-24T20:03:23.342Z,1.92
2022-09-24T20:05:54.869Z,1.55
2022-09-24T20:08:26.099Z,2.45
2022-09-24T20:11:00.144Z,2.00
2022-09-24T20:13:31.954Z,2.13
2022-09-24T20:16:04.815Z,2.70
2022-09-24T20:18:36.623Z,2.53
2022-09-24T20:21:09.122Z,1.65
2022-09-24T20:23:40.488Z,2.45
2022-09-24T20:26:27.438Z,2.58
2022-09-24T20:28:58.650Z,2.75
2022-09-24T20:31:29.954Z,1.92
2022-09-24T20:34:01.341Z,0.63
2022-09-24T20:36:32.961Z,1.58
2022-09-24T20:39:04.239Z,1.52
2022-09-24T20:41:38.056Z,1.38
2022-09-24T20:44:09.300Z,1.27
2022-09-24T20:46:40.953Z,1.20
2022-09-24T20:49:17.206Z,1.95
2022-09-24T20:54:26.101Z,1.25
2022-09-24T20:57:00.616Z,2.15
2022-09-24T20:59:31.728Z,1.88
2022-09-24T21:02:03.055Z,1.77
2022-09-24T21:04:34.799Z,2.20
2022-09-24T21:07:06.125Z,0.75
2022-09-24T21:09:37.212Z,2.50
2022-09-24T21:12:11.482Z,2.13
2022-09-24T21:14:42.738Z,1.88
2022-09-24T21:17:13.899Z,1.73
2022-09-24T21:19:45.144Z,1.77
2022-09-24T21:22:16.370Z,0.65
2022-09-24T21:24:47.333Z,0.82
2022-09-24T21:27:22.096Z,1.25
2022-09-24T21:29:53.033Z,2.15
2022-09-24T21:32:23.935Z,5.22
2022-09-24T21:34:55.088Z,1.75
2022-09-24T21:37:28.715Z,2.10
2022-09-24T21:39:59.631Z,1.10
2022-09-24T21:42:35.449Z,0.93
2022-09-24T21:45:07.279Z,3.72
2022-09-24T21:47:38.145Z,1.75
2022-09-24T21:50:10.531Z,1.73
2022-09-24T21:52:43.808Z,1.85
2022-09-24T21:55:15.028Z,1.45
2022-09-24T21:57:48.396Z,1.38
2022-09-24T22:00:19.749Z,2.67
2022-09-24T22:02:51.189Z,2.22
2022-09-24T22:05:22.284Z,1.85
2022-09-24T22:07:53.580Z,2.47
2022-09-24T22:10:25.121Z,2.67
2022-09-24T22:12:59.288Z,3.03
2022-09-24T22:15:30.761Z,2.92
2022-09-24T22:18:02.351Z,1.58
2022-09-24T22:20:34.369Z,1.55
2022-09-24T22:23:05.567Z,2.10
2022-09-24T22:25:36.869Z,0.93
2022-09-24T22:28:11.133Z,1.05
2022-09-24T22:30:46.479Z,1.27
2022-09-24T22:33:38.102Z,3.25
2022-09-24T22:36:07.004Z,3.65
2022-09-24T22:38:38.972Z,1.25
2022-09-24T22:41:12.586Z,4.50
2022-09-24T22:43:47.125Z,2.28
2022-09-24T22:46:18.789Z,2.47
2022-09-24T22:48:50.702Z,4.13
2022-09-24T22:51:21.835Z,2.92
2022-09-24T22:53:52.944Z,2.47
2022-09-24T22:56:25.530Z,2.60
2022-09-24T22:59:01.552Z,2.53
2022-09-24T23:01:34.622Z,2.67
2022-09-24T23:04:06.315Z,3.45
2022-09-24T23:06:37.844Z,1.38
2022-09-24T23:09:08.842Z,4.50
2022-09-24T23:11:40.306Z,2.58
2022-09-24T23:14:16.665Z,2.97
2022-09-24T23:16:48.015Z,2.22
2022-09-24T23:19:20.898Z,3.88
2022-09-24T23:21:51.701Z,2.55
2022-09-24T23:24:24.289Z,2.50
2022-09-24T23:26:56.619Z,2.38
2022-09-24T23:29:30.146Z,2.08
2022-09-24T23:32:01.108Z,3.67
2022-09-24T23:34:32.063Z,3.53
2022-09-24T23:37:02.832Z,2.45
2022-09-24T23:39:33.991Z,1.17
2022-09-24T23:42:05.352Z,4.47
2022-09-24T23:44:39.110Z,2.80
2022-09-24T23:47:09.936Z,1.63
2022-09-24T23:49:40.747Z,2.20
2022-09-24T23:52:11.710Z,2.13
2022-09-24T23:54:42.522Z,2.13
2022-09-24T23:57:13.330Z,1.45
2022-09-24T23:59:46.980Z,3.63
